Time;durP1;ratioP1;P1;durP2;ratioP2;P2;SDS_P1;SDS_P2;PMS_P1;PMS_P2;Temp;Humidity;BMP_temperature;BMP_pressure;BME280_temperature;BME280_humidity;BME280_pressure;Samples;Min_cycle;Max_cycle;Signal;HPM_P1;HPM_P2
2022/09/25 00:01:14;;;;;;;13.80;11.70;;;12.10;99.90;;;;;;5264327;28;20212;-47
2022/09/25 00:03:44;;;;;;;14.27;12.30;;;12.10;99.90;;;;;;5261715;28;20646;-47
2022/09/25 00:06:20;;;;;;;19.07;15.77;;;12.10;99.90;;;;;;5264310;28;20432;-48
2022/09/25 00:08:51;;;;;;;19.80;13.83;;;12.10;99.90;;;;;;5267896;28;20239;-47
2022/09/25 00:11:26;;;;;;;16.63;11.63;;;12.10;99.90;;;;;;5266853;28;20509;-47
2022/09/25 00:13:59;;;;;;;21.00;13.43;;;12.10;99.90;;;;;;5253704;28;20464;-47
2022/09/25 00:16:31;;;;;;;11.53;10.27;;;12.20;99.90;;;;;;5267935;28;20818;-50
2022/09/25 00:21:52;;;;;;;12.30;10.03;;;12.20;99.90;;;;;;5261989;28;20927;-48
2022/09/25 00:24:23;;;;;;;10.70;8.77;;;12.20;99.90;;;;;;5261927;28;20510;-47
2022/09/25 00:26:53;;;;;;;11.13;9.27;;;12.20;99.90;;;;;;5254318;28;20451;-47
2022/09/25 00:29:24;;;;;;;18.33;8.50;;;12.20;99.90;;;;;;5266837;28;20197;-47
2022/09/25 00:31:55;;;;;;;9.93;8.77;;;12.20;99.90;;;;;;5263615;28;20197;-47
2022/09/25 00:34:26;;;;;;;7.97;7.17;;;12.20;99.90;;;;;;5259698;28;20193;-48
2022/09/25 00:36:57;;;;;;;7.97;7.10;;;12.20;99.90;;;;;;5265335;28;20462;-46
2022/09/25 00:39:29;;;;;;;8.37;7.57;;;12.20;99.90;;;;;;5283206;28;20191;-48
2022/09/25 00:42:00;;;;;;;8.97;8.10;;;12.20;99.90;;;;;;5257252;28;21022;-46
2022/09/25 00:44:57;;;;;;;8.47;7.73;;;12.20;99.90;;;;;;5260726;28;20690;-48
2022/09/25 00:47:30;;;;;;;7.97;7.27;;;12.20;99.90;;;;;;5261233;28;20190;-47
2022/09/25 00:50:10;;;;;;;8.57;7.57;;;12.20;99.90;;;;;;5266407;28;20516;-47
2022/09/25 00:52:42;;;;;;;8.80;6.60;;;12.20;99.90;;;;;;5258054;28;20493;-46
2022/09/25 00:55:14;;;;;;;8.03;6.63;;;12.20;99.90;;;;;;5269510;28;20440;-48
2022/09/25 00:57:49;;;;;;;6.77;6.27;;;12.20;99.90;;;;;;5271678;28;20463;-46
2022/09/25 01:00:19;;;;;;;7.67;6.70;;;12.20;99.90;;;;;;5282827;28;20456;-51
2022/09/25 01:02:53;;;;;;;9.93;6.63;;;12.20;99.90;;;;;;5258684;28;20440;-47
2022/09/25 01:05:29;;;;;;;7.10;6.13;;;12.20;99.90;;;;;;5288437;28;20181;-47
2022/09/25 01:08:02;;;;;;;7.93;7.20;;;12.30;99.90;;;;;;5268801;28;20969;-47
2022/09/25 01:10:33;;;;;;;8.37;7.57;;;12.20;99.90;;;;;;5263502;28;20542;-52
2022/09/25 01:13:05;;;;;;;7.87;7.17;;;12.20;99.90;;;;;;5270830;28;20565;-46
2022/09/25 01:15:42;;;;;;;10.33;6.97;;;12.20;99.90;;;;;;5288762;28;20523;-48
2022/09/25 01:18:31;;;;;;;7.40;6.70;;;12.20;99.90;;;;;;5272508;28;20439;-46
2022/09/25 01:21:23;;;;;;;7.63;7.03;;;12.20;99.90;;;;;;5257130;28;20489;-48
2022/09/25 01:24:22;;;;;;;8.20;7.40;;;12.20;99.90;;;;;;5264762;28;20439;-48
2022/09/25 01:27:34;;;;;;;6.33;5.90;;;12.30;99.90;;;;;;5271168;28;20790;-55
2022/09/25 01:30:09;;;;;;;6.40;5.90;;;12.30;99.90;;;;;;5258710;28;20463;-46
2022/09/25 01:33:06;;;;;;;5.97;5.47;;;12.40;99.90;;;;;;5287584;28;20447;-47
2022/09/25 01:36:00;;;;;;;7.90;6.63;;;12.40;99.90;;;;;;5258462;28;20543;-47
2022/09/25 01:38:50;;;;;;;7.73;5.80;;;12.40;99.90;;;;;;5260497;28;20957;-48
2022/09/25 01:41:34;;;;;;;7.63;6.90;;;12.40;99.90;;;;;;5262919;28;20497;-48
2022/09/25 01:44:21;;;;;;;7.20;5.90;;;12.40;99.90;;;;;;5264719;28;20768;-48
2022/09/25 01:46:53;;;;;;;6.63;6.00;;;12.40;99.90;;;;;;5269756;28;20443;-47
2022/09/25 01:49:34;;;;;;;6.67;6.00;;;12.40;99.90;;;;;;5258372;28;20441;-46
2022/09/25 01:52:10;;;;;;;6.30;5.70;;;12.40;99.90;;;;;;5258712;28;20466;-50
2022/09/25 01:54:50;;;;;;;8.77;6.17;;;12.40;99.90;;;;;;5269825;28;20522;-48
2022/09/25 01:57:32;;;;;;;6.27;5.67;;;12.40;99.90;;;;;;5264982;28;20885;-47
2022/09/25 02:00:10;;;;;;;6.50;5.90;;;12.40;99.90;;;;;;5261806;28;20516;-47
2022/09/25 02:03:10;;;;;;;6.40;5.90;;;12.40;99.90;;;;;;5260183;28;20443;-47
2022/09/25 02:05:49;;;;;;;6.33;5.73;;;12.40;99.90;;;;;;5270578;28;20439;-48
2022/09/25 02:08:34;;;;;;;5.47;5.07;;;12.50;99.90;;;;;;5261737;28;20432;-47
2022/09/25 02:11:06;;;;;;;6.47;5.87;;;12.50;99.90;;;;;;5270514;28;20443;-47
2022/09/25 02:13:48;;;;;;;6.27;5.67;;;12.50;99.90;;;;;;5262697;28;20439;-46
2022/09/25 02:16:24;;;;;;;5.83;5.33;;;12.50;99.90;;;;;;5262159;28;20471;-46
2022/09/25 02:22:05;;;;;;;6.17;5.47;;;12.50;99.90;;;;;;5258910;28;20923;-52
2022/09/25 02:24:56;;;;;;;7.57;5.43;;;12.50;99.90;;;;;;5269260;28;20463;-47
2022/09/25 02:27:28;;;;;;;5.90;5.40;;;12.50;99.90;;;;;;5278090;28;20439;-51
2022/09/25 02:29:59;;;;;;;5.63;5.23;;;12.60;99.90;;;;;;5263179;28;20487;-48
2022/09/25 02:32:31;;;;;;;7.03;5.37;;;12.60;99.90;;;;;;5266108;28;20467;-47
2022/09/25 02:35:02;;;;;;;5.70;5.07;;;12.60;99.90;;;;;;5268898;28;20676;-47
2022/09/25 02:37:33;;;;;;;5.70;4.73;;;12.60;99.90;;;;;;5268706;28;20823;-47
2022/09/25 02:40:04;;;;;;;5.73;5.33;;;12.60;99.90;;;;;;5267874;28;20451;-47
2022/09/25 02:42:49;;;;;;;6.80;5.50;;;12.60;99.90;;;;;;5268861;28;20178;-47
2022/09/25 02:45:31;;;;;;;5.30;4.87;;;12.60;99.90;;;;;;5268299;28;21026;-46
2022/09/25 02:48:26;;;;;;;5.47;4.97;;;12.50;99.90;;;;;;5256888;28;20436;-47
2022/09/25 02:51:12;;;;;;;6.23;5.37;;;12.60;99.90;;;;;;5268691;28;20452;-47
2022/09/25 02:53:50;;;;;;;6.20;5.60;;;12.50;99.90;;;;;;5265186;28;20796;-47
2022/09/25 02:56:40;;;;;;;6.13;5.67;;;12.50;99.90;;;;;;5265491;28;20562;-47
2022/09/25 02:59:19;;;;;;;6.50;6.00;;;12.50;99.90;;;;;;5270384;28;20564;-50
2022/09/25 03:01:50;;;;;;;5.43;5.03;;;12.50;99.90;;;;;;5263576;28;20443;-47
2022/09/25 03:04:23;;;;;;;5.90;5.03;;;12.50;99.90;;;;;;5263633;28;20451;-47
2022/09/25 03:06:55;;;;;;;6.97;6.40;;;12.50;99.90;;;;;;5280402;28;20466;-47
2022/09/25 03:09:28;;;;;;;6.80;5.70;;;12.40;99.90;;;;;;5262702;28;20796;-48
2022/09/25 03:12:03;;;;;;;6.23;5.67;;;12.40;99.90;;;;;;5269142;28;20819;-46
2022/09/25 03:14:33;;;;;;;5.60;5.10;;;12.40;99.90;;;;;;5267797;28;20433;-48
2022/09/25 03:17:06;;;;;;;6.83;5.90;;;12.40;99.90;;;;;;5266317;28;20537;-47
2022/09/25 03:19:37;;;;;;;6.47;5.97;;;12.40;99.90;;;;;;5266925;28;20531;-48
2022/09/25 03:22:07;;;;;;;6.30;5.80;;;12.30;99.90;;;;;;5259874;28;20449;-47
2022/09/25 03:24:38;;;;;;;6.20;5.70;;;12.30;99.90;;;;;;5264099;28;20181;-48
2022/09/25 03:27:09;;;;;;;6.47;5.87;;;12.30;99.90;;;;;;5249979;28;20197;-48
2022/09/25 03:29:39;;;;;;;6.50;5.80;;;12.30;99.90;;;;;;5271484;28;20213;-53
2022/09/25 03:32:10;;;;;;;5.80;5.30;;;12.30;99.90;;;;;;5258907;28;20244;-52
2022/09/25 03:34:40;;;;;;;6.07;5.57;;;12.30;99.90;;;;;;5262138;28;20185;-51
2022/09/25 03:37:11;;;;;;;7.50;5.73;;;12.20;99.90;;;;;;5263795;28;20236;-53
2022/09/25 03:39:42;;;;;;;6.53;5.47;;;12.20;99.90;;;;;;5268782;28;20205;-53
2022/09/25 03:42:13;;;;;;;6.70;6.10;;;12.20;99.90;;;;;;5258848;28;20192;-51
2022/09/25 03:44:43;;;;;;;10.03;5.80;;;12.20;99.90;;;;;;5267492;28;20187;-50
2022/09/25 03:47:14;;;;;;;7.23;6.00;;;12.20;99.90;;;;;;5264152;28;20427;-52
2022/09/25 03:49:44;;;;;;;11.93;7.00;;;12.20;99.90;;;;;;5267670;28;20656;-53
2022/09/25 03:52:15;;;;;;;6.33;5.93;;;12.20;99.90;;;;;;5255019;28;20194;-52
2022/09/25 03:54:45;;;;;;;10.53;6.90;;;12.20;99.90;;;;;;5254587;28;20186;-52
2022/09/25 03:57:16;;;;;;;6.77;6.17;;;12.20;99.90;;;;;;5269052;28;20254;-52
2022/09/25 03:59:47;;;;;;;8.03;6.40;;;12.10;99.90;;;;;;5284875;28;20572;-52
2022/09/25 04:02:18;;;;;;;8.77;6.33;;;12.10;99.90;;;;;;5263370;28;20288;-52
2022/09/25 04:04:49;;;;;;;8.60;6.57;;;12.10;99.90;;;;;;5258394;28;20182;-52
2022/09/25 04:07:21;;;;;;;5.33;5.10;;;12.10;99.90;;;;;;5259314;28;20435;-52
2022/09/25 04:09:51;;;;;;;6.50;5.87;;;12.10;99.90;;;;;;5261470;28;20210;-51
2022/09/25 04:12:22;;;;;;;7.90;6.40;;;12.10;99.90;;;;;;5259488;28;20761;-52
2022/09/25 04:14:53;;;;;;;6.73;6.23;;;12.20;99.90;;;;;;5283316;28;20188;-52
2022/09/25 04:17:24;;;;;;;7.03;6.33;;;12.10;99.90;;;;;;5264746;28;20269;-52
2022/09/25 04:19:54;;;;;;;7.80;6.43;;;12.00;99.90;;;;;;5263223;28;20463;-52
2022/09/25 04:22:25;;;;;;;7.10;6.40;;;12.00;99.90;;;;;;5266057;28;20196;-51
2022/09/25 04:24:57;;;;;;;6.77;5.80;;;12.00;99.90;;;;;;5259872;28;20178;-51
2022/09/25 04:27:27;;;;;;;13.50;7.23;;;12.10;99.90;;;;;;5262190;28;20185;-51
2022/09/25 04:29:58;;;;;;;7.93;6.20;;;12.00;99.90;;;;;;5255751;28;20466;-52
2022/09/25 04:35:18;;;;;;;10.43;7.30;;;12.00;99.90;;;;;;5257623;28;20175;-52
2022/09/25 04:37:48;;;;;;;9.43;6.37;;;12.00;99.90;;;;;;5266942;28;20467;-52
2022/09/25 04:40:19;;;;;;;6.93;5.43;;;12.00;99.90;;;;;;5267930;28;20669;-52
2022/09/25 04:43:04;;;;;;;7.57;6.60;;;12.00;99.90;;;;;;5280885;28;20311;-52
2022/09/25 04:45:35;;;;;;;9.30;7.63;;;11.90;99.90;;;;;;5259742;28;20185;-52
2022/09/25 04:48:06;;;;;;;9.63;6.37;;;12.00;99.90;;;;;;5260457;28;20977;-51
2022/09/25 04:50:38;;;;;;;10.40;6.20;;;11.90;99.90;;;;;;5251192;28;20447;-50
2022/09/25 04:53:08;;;;;;;11.30;7.80;;;11.90;99.90;;;;;;5260924;28;20349;-53
2022/09/25 04:55:39;;;;;;;7.13;6.53;;;11.90;99.90;;;;;;5256401;28;20519;-53
2022/09/25 04:58:10;;;;;;;8.27;7.20;;;11.90;99.90;;;;;;5254468;28;20514;-50
2022/09/25 05:00:41;;;;;;;11.60;7.33;;;11.90;99.90;;;;;;5265461;28;20554;-51
2022/09/25 05:03:12;;;;;;;7.33;6.07;;;11.90;99.90;;;;;;5256541;28;20436;-52
2022/09/25 05:05:42;;;;;;;7.37;6.80;;;11.90;99.90;;;;;;5257570;28;20440;-52
2022/09/25 05:08:13;;;;;;;8.47;7.03;;;11.90;99.90;;;;;;5264627;28;20170;-53
2022/09/25 05:10:44;;;;;;;10.27;6.97;;;11.90;99.90;;;;;;5266066;28;20205;-52
2022/09/25 05:13:14;;;;;;;7.60;6.90;;;11.90;99.90;;;;;;5262386;28;20176;-52
2022/09/25 05:15:45;;;;;;;9.83;7.80;;;11.90;99.90;;;;;;5283095;28;20179;-53
2022/09/25 05:18:17;;;;;;;9.13;7.03;;;11.90;99.90;;;;;;5268319;28;20181;-52
2022/09/25 05:20:48;;;;;;;7.23;6.63;;;11.90;99.90;;;;;;5263399;28;20677;-52
2022/09/25 05:23:20;;;;;;;8.60;7.60;;;11.90;99.90;;;;;;5260992;28;20482;-52
2022/09/25 05:25:53;;;;;;;8.73;7.83;;;11.90;99.90;;;;;;5258865;28;20431;-53
2022/09/25 05:28:24;;;;;;;8.20;7.40;;;11.90;99.90;;;;;;5266214;28;20431;-52
2022/09/25 05:31:00;;;;;;;9.23;7.10;;;11.90;99.90;;;;;;5264433;28;20469;-53
2022/09/25 05:33:31;;;;;;;12.73;8.73;;;11.90;99.90;;;;;;5275855;28;20181;-49
2022/09/25 05:36:04;;;;;;;20.13;6.70;;;11.90;99.90;;;;;;5262772;28;20455;-53
2022/09/25 05:38:36;;;;;;;9.50;8.00;;;11.90;99.90;;;;;;5264163;28;20915;-52
2022/09/25 05:41:09;;;;;;;7.50;6.77;;;11.90;99.90;;;;;;5267251;28;20470;-53
2022/09/25 05:43:46;;;;;;;10.07;7.80;;;11.90;99.90;;;;;;5266173;28;20955;-53
2022/09/25 05:46:16;;;;;;;7.70;7.10;;;11.90;99.90;;;;;;5267855;28;20443;-53
2022/09/25 05:48:47;;;;;;;7.17;6.47;;;11.90;99.90;;;;;;5269021;28;20435;-52
2022/09/25 05:51:17;;;;;;;7.13;6.53;;;11.90;99.90;;;;;;5266266;28;20206;-53
2022/09/25 05:53:51;;;;;;;11.90;8.27;;;11.90;99.90;;;;;;5261572;28;20195;-52
2022/09/25 05:56:23;;;;;;;17.80;8.67;;;11.90;99.90;;;;;;5260755;28;20274;-53
2022/09/25 05:58:54;;;;;;;7.60;6.90;;;11.90;99.90;;;;;;5258199;28;20435;-53
2022/09/25 06:01:25;;;;;;;21.57;7.67;;;11.90;99.90;;;;;;5261023;28;20797;-53
2022/09/25 06:03:56;;;;;;;8.50;7.70;;;11.90;99.90;;;;;;5265192;28;20445;-52
2022/09/25 06:06:28;;;;;;;7.30;6.70;;;11.90;99.90;;;;;;5265070;28;20641;-53
2022/09/25 06:08:58;;;;;;;10.37;7.70;;;11.90;99.90;;;;;;5267660;28;20182;-53
2022/09/25 06:11:32;;;;;;;8.73;7.10;;;12.00;99.90;;;;;;5265853;28;20509;-53
2022/09/25 06:14:03;;;;;;;8.20;7.50;;;12.10;99.90;;;;;;5249420;28;20258;-55
2022/09/25 06:16:34;;;;;;;11.03;8.50;;;12.20;99.90;;;;;;5265017;28;20483;-54
2022/09/25 06:19:04;;;;;;;13.20;8.40;;;12.40;99.90;;;;;;5246827;28;20182;-51
2022/09/25 06:21:35;;;;;;;9.30;7.30;;;12.70;99.90;;;;;;5256631;28;20299;-49
2022/09/25 06:24:05;;;;;;;11.73;8.63;;;13.00;99.90;;;;;;5265278;28;20185;-53
2022/09/25 06:26:37;;;;;;;10.07;8.00;;;13.40;99.90;;;;;;5261282;28;20264;-52
2022/09/25 06:29:07;;;;;;;8.13;7.50;;;14.00;99.90;;;;;;5270220;28;20210;-52
2022/09/25 06:31:38;;;;;;;13.47;7.83;;;14.90;99.90;;;;;;5267560;28;20569;-52
2022/09/25 06:34:10;;;;;;;9.77;7.60;;;15.70;99.90;;;;;;5267561;28;20193;-51
2022/09/25 06:36:41;;;;;;;8.83;7.93;;;16.20;99.90;;;;;;5265256;28;20394;-53
2022/09/25 06:39:11;;;;;;;7.67;6.93;;;16.10;99.90;;;;;;5264402;28;20435;-53
2022/09/25 06:41:42;;;;;;;10.97;7.83;;;16.10;99.90;;;;;;5264091;28;20209;-53
2022/09/25 06:44:13;;;;;;;10.20;8.57;;;15.90;99.90;;;;;;5265671;28;20188;-52
2022/09/25 06:46:47;;;;;;;11.10;8.67;;;15.60;99.90;;;;;;5267172;28;20502;-52
2022/09/25 06:49:17;;;;;;;11.53;8.40;;;15.20;99.90;;;;;;5282244;28;22022;-49
2022/09/25 06:51:50;;;;;;;9.30;7.77;;;14.70;99.90;;;;;;5267650;28;20492;-52
2022/09/25 06:54:20;;;;;;;8.33;7.53;;;14.30;99.90;;;;;;5275727;28;20215;-48
2022/09/25 06:56:53;;;;;;;11.13;8.30;;;14.10;99.90;;;;;;5267851;28;20875;-50
2022/09/25 06:59:24;;;;;;;9.50;7.70;;;14.20;99.90;;;;;;5265669;28;20174;-52
2022/09/25 07:03:43;;;;;;;10.83;8.27;;;14.20;99.90;;;;;;5262591;28;20432;-54
2022/09/25 07:04:51;;;;;;;8.93;7.53;;;14.50;99.90;;;;;;5263645;28;20182;-52
2022/09/25 07:07:23;;;;;;;7.87;7.10;;;14.60;99.90;;;;;;5268270;28;20432;-53
2022/09/25 07:09:53;;;;;;;9.73;7.77;;;15.00;99.90;;;;;;5266800;28;20818;-52
2022/09/25 07:12:24;;;;;;;14.40;8.00;;;15.30;99.90;;;;;;5256256;28;20443;-53
2022/09/25 07:14:54;;;;;;;16.00;8.07;;;15.10;99.90;;;;;;5264288;28;20227;-51
2022/09/25 07:17:25;;;;;;;9.60;8.07;;;14.80;99.90;;;;;;5261263;28;20204;-52
2022/09/25 07:19:55;;;;;;;9.30;8.27;;;14.70;99.90;;;;;;5263533;28;20214;-52
2022/09/25 07:22:27;;;;;;;8.33;7.50;;;15.00;99.90;;;;;;5266245;28;20197;-52
2022/09/25 07:24:58;;;;;;;9.80;8.10;;;15.50;99.90;;;;;;5263526;28;20192;-53
2022/09/25 07:27:29;;;;;;;8.70;7.67;;;15.70;99.90;;;;;;5232871;28;20435;-52
2022/09/25 07:30:00;;;;;;;8.30;7.20;;;16.30;99.90;;;;;;5267942;28;20221;-52
2022/09/25 07:32:31;;;;;;;12.33;8.20;;;16.80;99.90;;;;;;5265923;28;20454;-53
2022/09/25 07:35:02;;;;;;;11.57;7.50;;;17.40;99.90;;;;;;5266639;28;20671;-55
2022/09/25 07:37:32;;;;;;;7.23;6.03;;;19.20;99.90;;;;;;5265137;28;20209;-50
2022/09/25 07:40:03;;;;;;;7.87;7.13;;;22.10;82.30;;;;;;5256117;28;20498;-54
2022/09/25 07:42:34;;;;;;;11.57;7.67;;;24.30;58.70;;;;;;5273713;28;20205;-52
2022/09/25 07:45:05;;;;;;;10.77;8.23;;;25.80;52.00;;;;;;5261694;28;20739;-53
2022/09/25 07:47:35;;;;;;;9.47;8.03;;;25.50;47.40;;;;;;5259925;28;20185;-54
2022/09/25 07:50:07;;;;;;;9.40;7.43;;;23.50;49.90;;;;;;5255520;28;20475;-53
2022/09/25 07:52:37;;;;;;;11.80;8.60;;;21.50;52.70;;;;;;5277634;28;20181;-53
2022/09/25 07:55:08;;;;;;;9.77;8.87;;;20.00;56.60;;;;;;5260924;28;20526;-53
2022/09/25 07:57:40;;;;;;;7.90;7.20;;;18.60;60.50;;;;;;5265329;28;20210;-53
2022/09/25 08:00:12;;;;;;;8.93;7.67;;;17.60;66.60;;;;;;5264932;28;20287;-54
2022/09/25 08:02:42;;;;;;;8.17;6.73;;;17.20;71.30;;;;;;5264373;28;20913;-52
2022/09/25 08:05:14;;;;;;;8.37;7.50;;;17.00;74.70;;;;;;5258310;28;20534;-52
2022/09/25 08:07:44;;;;;;;7.53;6.57;;;17.10;77.20;;;;;;5266920;28;20177;-52
2022/09/25 08:10:15;;;;;;;8.77;7.80;;;17.10;80.40;;;;;;5264067;28;20542;-54
2022/09/25 08:12:46;;;;;;;8.93;7.97;;;17.40;80.60;;;;;;5264439;28;20185;-53
2022/09/25 08:15:17;;;;;;;12.27;8.60;;;17.70;79.90;;;;;;5265284;28;20216;-56
2022/09/25 08:17:47;;;;;;;12.53;7.57;;;18.10;80.00;;;;;;5266216;28;20576;-53
2022/09/25 08:20:18;;;;;;;11.97;7.30;;;18.40;77.20;;;;;;5259369;28;20225;-52
2022/09/25 08:22:52;;;;;;;12.07;8.40;;;18.70;75.60;;;;;;5256098;28;20544;-54
2022/09/25 08:25:23;;;;;;;8.50;7.90;;;18.80;75.30;;;;;;5263114;28;20245;-53
2022/09/25 08:27:53;;;;;;;11.03;8.03;;;18.60;75.00;;;;;;5282327;28;20443;-53
2022/09/25 08:30:24;;;;;;;11.13;7.70;;;18.40;76.60;;;;;;5264916;28;20297;-53
2022/09/25 08:32:55;;;;;;;11.30;8.40;;;18.30;76.40;;;;;;5260431;28;20261;-54
2022/09/25 08:35:26;;;;;;;10.10;7.50;;;18.30;75.70;;;;;;5259594;28;20189;-53
2022/09/25 08:37:57;;;;;;;9.03;8.13;;;18.60;75.40;;;;;;5262293;28;20667;-53
2022/09/25 08:40:30;;;;;;;9.07;8.17;;;18.70;74.10;;;;;;5275491;28;20570;-51
2022/09/25 08:43:01;;;;;;;10.27;7.03;;;18.60;74.50;;;;;;5253730;28;20278;-51
2022/09/25 08:51:41;;;;;;;15.17;7.70;;;19.70;72.30;;;;;;5264682;28;20622;-53
2022/09/25 08:54:21;;;;;;;7.70;6.90;;;19.80;70.90;;;;;;5268321;28;20527;-54
2022/09/25 08:56:55;;;;;;;9.17;8.27;;;19.70;70.50;;;;;;5262454;28;20460;-53
2022/09/25 08:59:37;;;;;;;8.73;7.80;;;19.50;70.10;;;;;;5259649;28;20427;-48
2022/09/25 09:02:44;;;;;;;11.53;8.60;;;19.10;71.80;;;;;;5264265;28;20419;-52
2022/09/25 09:05:20;;;;;;;9.13;7.57;;;18.90;71.60;;;;;;5239078;28;20534;-52
2022/09/25 09:08:14;;;;;;;7.77;6.97;;;19.00;72.60;;;;;;5262559;28;20430;-53
2022/09/25 09:10:52;;;;;;;9.40;7.97;;;19.20;73.00;;;;;;5257687;28;20459;-53
2022/09/25 09:13:28;;;;;;;9.77;8.40;;;19.40;72.40;;;;;;5262820;28;20450;-55
2022/09/25 09:16:08;;;;;;;8.73;7.83;;;19.20;71.00;;;;;;5273168;28;20402;-52
2022/09/25 09:18:40;;;;;;;14.47;8.70;;;18.80;71.90;;;;;;5268741;28;20481;-57
2022/09/25 09:21:24;;;;;;;13.70;9.33;;;18.50;73.20;;;;;;5267319;28;20550;-53
2022/09/25 09:24:05;;;;;;;9.10;7.93;;;18.30;74.90;;;;;;5265264;28;20435;-55
2022/09/25 09:26:54;;;;;;;9.90;8.90;;;18.50;75.60;;;;;;5261746;28;20508;-51
2022/09/25 09:29:38;;;;;;;8.00;7.30;;;18.40;75.60;;;;;;5258249;28;20603;-54
2022/09/25 09:32:30;;;;;;;8.67;6.90;;;18.70;76.00;;;;;;5290625;22;20494;-52
2022/09/25 09:35:06;;;;;;;9.83;8.03;;;18.70;75.60;;;;;;5266088;28;20430;-52
2022/09/25 09:38:04;;;;;;;13.60;8.03;;;19.00;74.20;;;;;;5261396;28;20471;-52
2022/09/25 09:41:07;;;;;;;13.33;8.90;;;18.80;72.60;;;;;;5253939;28;20456;-51
2022/09/25 09:44:00;;;;;;;11.53;9.03;;;18.30;74.60;;;;;;5259779;28;20441;-51
2022/09/25 09:47:09;;;;;;;13.60;10.20;;;18.00;75.90;;;;;;5261149;28;20444;-50
2022/09/25 09:49:49;;;;;;;14.60;8.40;;;17.70;76.90;;;;;;5248838;28;20440;-50
2022/09/25 09:52:26;;;;;;;11.80;10.27;;;17.60;78.00;;;;;;5246334;28;20467;-52
2022/09/25 09:55:21;;;;;;;9.27;7.83;;;17.50;80.20;;;;;;5248482;28;20458;-51
2022/09/25 09:57:56;;;;;;;9.80;8.20;;;17.60;80.10;;;;;;5244799;28;20464;-51
2022/09/25 10:00:27;;;;;;;11.93;7.80;;;17.70;80.70;;;;;;5244244;28;20452;-52
2022/09/25 10:03:22;;;;;;;12.03;8.30;;;17.80;81.20;;;;;;5252777;28;20447;-51
2022/09/25 10:06:08;;;;;;;15.93;10.10;;;18.10;81.10;;;;;;5249395;28;20765;-52
2022/09/25 10:08:40;;;;;;;11.57;9.30;;;18.30;79.60;;;;;;5251032;28;20500;-53
2022/09/25 10:11:16;;;;;;;12.63;10.03;;;18.30;79.10;;;;;;5247962;28;20452;-52
2022/09/25 10:13:47;;;;;;;12.73;9.57;;;18.50;77.70;;;;;;5241671;28;20441;-49
2022/09/25 10:16:24;;;;;;;11.80;9.20;;;18.50;76.70;;;;;;5260068;28;20752;-48
2022/09/25 10:19:08;;;;;;;14.80;10.20;;;18.30;76.30;;;;;;5251546;28;21022;-50
2022/09/25 10:21:44;;;;;;;12.57;9.90;;;18.30;78.10;;;;;;5244812;28;20887;-49
2022/09/25 10:24:52;;;;;;;11.80;9.30;;;18.50;78.20;;;;;;5246541;28;20511;-49
2022/09/25 10:27:36;;;;;;;13.63;9.97;;;18.40;78.30;;;;;;5254105;28;20440;-51
2022/09/25 10:30:10;;;;;;;10.70;9.10;;;18.20;78.40;;;;;;5245156;28;20480;-49
2022/09/25 10:32:41;;;;;;;10.67;9.07;;;18.10;79.40;;;;;;5257500;28;20424;-50
2022/09/25 10:35:19;;;;;;;11.50;8.97;;;18.20;79.90;;;;;;5245952;28;20436;-51
2022/09/25 10:37:55;;;;;;;7.70;6.90;;;18.20;80.00;;;;;;5248812;28;20689;-50
2022/09/25 10:40:34;;;;;;;11.17;8.63;;;18.30;80.60;;;;;;5245106;28;20420;-51
2022/09/25 10:43:19;;;;;;;12.13;9.30;;;18.50;79.10;;;;;;5249062;28;20412;-50
2022/09/25 10:46:11;;;;;;;10.97;8.90;;;18.80;78.40;;;;;;5239089;28;20737;-52
2022/09/25 10:51:31;;;;;;;9.60;8.60;;;18.90;77.20;;;;;;5248578;28;21374;-49
2022/09/25 10:54:08;;;;;;;13.60;9.67;;;19.00;75.30;;;;;;5248090;28;20436;-49
2022/09/25 10:56:39;;;;;;;34.00;15.67;;;19.10;74.80;;;;;;5258247;28;20221;-49
2022/09/25 10:59:18;;;;;;;14.67;10.60;;;18.90;75.80;;;;;;5243757;28;20437;-48
2022/09/25 11:01:52;;;;;;;18.63;8.60;;;19.00;76.40;;;;;;5244638;28;20460;-50
2022/09/25 11:04:29;;;;;;;9.67;7.70;;;18.90;76.60;;;;;;5247417;28;20428;-51
2022/09/25 11:07:03;;;;;;;17.93;9.20;;;18.80;77.30;;;;;;5243003;28;20987;-51
2022/09/25 11:09:41;;;;;;;10.57;8.60;;;18.90;76.20;;;;;;5250943;28;20437;-51
2022/09/25 11:12:18;;;;;;;9.83;8.70;;;18.70;75.60;;;;;;5250040;28;20466;-50
2022/09/25 11:15:01;;;;;;;16.60;9.73;;;18.80;77.00;;;;;;5251680;28;20436;-50
2022/09/25 11:17:40;;;;;;;9.20;8.00;;;19.00;77.10;;;;;;5249775;28;20464;-52
2022/09/25 11:20:17;;;;;;;10.07;8.87;;;19.20;76.70;;;;;;5251318;28;20428;-50
2022/09/25 11:23:10;;;;;;;9.70;7.17;;;19.40;75.10;;;;;;5264343;28;20923;-48
2022/09/25 11:26:16;;;;;;;12.80;7.50;;;19.60;73.90;;;;;;5258084;28;20448;-48
2022/09/25 11:28:56;;;;;;;21.10;13.10;;;19.90;73.50;;;;;;5259352;28;20864;-51
2022/09/25 11:31:36;;;;;;;35.33;19.13;;;20.20;72.40;;;;;;5253846;28;20463;-51
2022/09/25 11:34:28;;;;;;;16.80;10.93;;;20.30;71.50;;;;;;5245477;28;20812;-50
2022/09/25 11:37:28;;;;;;;18.00;10.17;;;20.50;71.30;;;;;;5230662;28;20971;-50
2022/09/25 11:43:11;;;;;;;15.30;9.13;;;20.50;69.70;;;;;;5245430;28;20439;-49
2022/09/25 11:45:52;;;;;;;27.83;10.50;;;20.20;69.40;;;;;;5245787;28;20441;-54
2022/09/25 11:48:53;;;;;;;11.43;9.63;;;20.10;70.20;;;;;;5243324;28;20951;-49
2022/09/25 11:51:42;;;;;;;15.43;8.63;;;19.80;70.50;;;;;;5243249;28;20479;-51
2022/09/25 11:54:26;;;;;;;10.90;7.40;;;20.00;71.70;;;;;;5244980;28;20501;-50
2022/09/25 11:57:03;;;;;;;11.27;7.43;;;20.00;72.00;;;;;;5244414;28;20468;-50
2022/09/25 12:00:03;;;;;;;7.27;6.17;;;20.30;70.80;;;;;;5235394;28;20456;-51
2022/09/25 12:03:00;;;;;;;10.67;6.97;;;20.20;70.70;;;;;;5242246;28;20627;-52
2022/09/25 12:06:13;;;;;;;8.90;7.00;;;20.00;68.60;;;;;;5241152;28;20437;-51
2022/09/25 12:08:53;;;;;;;8.70;6.70;;;19.80;69.80;;;;;;5238751;28;20454;-52
2022/09/25 12:11:51;;;;;;;7.33;5.80;;;19.90;72.00;;;;;;5240147;28;20444;-51
2022/09/25 12:14:59;;;;;;;12.77;8.43;;;20.10;70.60;;;;;;5259233;28;20471;-50
2022/09/25 12:18:01;;;;;;;11.70;8.00;;;20.20;69.00;;;;;;5243498;28;20464;-51
2022/09/25 12:20:49;;;;;;;10.00;7.87;;;20.10;69.10;;;;;;5243666;28;20528;-50
2022/09/25 12:23:19;;;;;;;7.60;6.57;;;20.10;69.00;;;;;;5230876;28;20531;-51
2022/09/25 12:26:15;;;;;;;16.47;9.17;;;19.80;69.00;;;;;;5231210;28;20838;-50
2022/09/25 12:28:51;;;;;;;16.00;11.13;;;19.70;70.00;;;;;;5253913;28;20191;-51
2022/09/25 12:31:24;;;;;;;7.70;7.03;;;19.90;70.70;;;;;;5238883;28;20470;-51
2022/09/25 12:34:07;;;;;;;7.03;6.40;;;19.80;70.90;;;;;;5240567;28;20437;-52
2022/09/25 12:36:55;;;;;;;9.90;7.60;;;19.90;71.00;;;;;;5261185;28;21064;-51
2022/09/25 12:39:40;;;;;;;23.63;12.63;;;20.00;71.10;;;;;;5243160;28;20464;-53
2022/09/25 12:42:24;;;;;;;36.63;20.53;;;20.00;71.10;;;;;;5243039;28;20452;-51
2022/09/25 12:45:02;;;;;;;20.10;10.43;;;20.20;70.30;;;;;;5239750;28;20451;-51
2022/09/25 12:47:39;;;;;;;13.47;8.40;;;20.50;67.30;;;;;;5237560;28;20527;-53
2022/09/25 12:50:24;;;;;;;8.40;7.00;;;20.70;64.50;;;;;;5253784;28;20532;-51
2022/09/25 12:52:58;;;;;;;5.90;5.13;;;20.70;64.60;;;;;;5258044;28;20522;-53
2022/09/25 12:55:48;;;;;;;5.80;5.20;;;20.50;63.80;;;;;;5239635;28;20440;-51
2022/09/25 12:58:50;;;;;;;5.80;4.77;;;20.40;64.80;;;;;;5246318;28;20468;-51
2022/09/25 13:01:24;;;;;;;6.73;6.13;;;20.40;64.50;;;;;;5266391;28;21182;-53
2022/09/25 13:04:05;;;;;;;6.93;5.47;;;20.50;65.00;;;;;;5246023;28;20444;-53
2022/09/25 13:06:47;;;;;;;5.87;5.27;;;20.60;64.20;;;;;;5240926;28;21007;-53
2022/09/25 13:09:29;;;;;;;7.00;4.80;;;20.60;62.40;;;;;;5249310;28;20444;-51
2022/09/25 13:12:07;;;;;;;5.80;4.83;;;20.20;60.80;;;;;;5252989;28;21701;-52
2022/09/25 13:14:55;;;;;;;5.60;4.10;;;20.00;62.10;;;;;;5245192;28;20474;-50
2022/09/25 13:17:25;;;;;;;7.00;4.77;;;19.80;62.70;;;;;;5251886;28;20570;-50
2022/09/25 13:20:36;;;;;;;4.73;4.40;;;19.80;63.80;;;;;;5254234;28;20551;-51
2022/09/25 13:23:15;;;;;;;4.87;4.47;;;19.70;62.90;;;;;;5228612;28;20198;-52
2022/09/25 13:25:47;;;;;;;9.70;7.40;;;19.70;64.30;;;;;;5242845;28;20493;-51
2022/09/25 13:28:25;;;;;;;4.90;4.30;;;19.70;64.90;;;;;;5239291;28;20455;-51
2022/09/25 13:31:09;;;;;;;4.70;4.33;;;19.70;65.50;;;;;;5241697;28;20502;-52
2022/09/25 13:34:10;;;;;;;3.97;3.77;;;19.70;65.80;;;;;;5245102;28;20464;-51
2022/09/25 13:36:54;;;;;;;6.00;5.27;;;19.70;65.90;;;;;;5243262;28;20945;-51
2022/09/25 13:42:37;;;;;;;11.73;9.13;;;20.00;65.90;;;;;;5246939;28;20447;-50
2022/09/25 13:45:31;;;;;;;9.23;6.87;;;20.10;65.60;;;;;;5239012;28;20508;-52
2022/09/25 13:48:11;;;;;;;25.93;11.00;;;20.20;66.00;;;;;;5242818;28;20992;-50
2022/09/25 13:50:44;;;;;;;7.50;6.73;;;20.20;65.30;;;;;;5245904;28;20452;-51
2022/09/25 13:53:21;;;;;;;11.03;7.13;;;20.00;64.60;;;;;;5239669;28;20428;-50
2022/09/25 13:55:54;;;;;;;9.60;6.53;;;19.70;65.30;;;;;;5240344;28;20539;-50
2022/09/25 13:58:27;;;;;;;10.30;7.73;;;19.60;66.00;;;;;;5245355;28;20503;-50